Sbi Tango — V7KC3 — position and weather

sailwx.info

Track history (hours):
 
Tides and Currents Weather Stations Pressure Air Temp Water Temp Dewpoint Dewpoint Depression Visibility Wind Speed Wind Dir Waves Ship Positions

Sbi Tango

Last reported at 2018-Jul-17 12:34 UTC. Time now 2018-Jul-20 14:14 UTC.
Position N 34°01' E 023°28'.

Length 199 m; draft 13.2 m.

Type: Cargo ship. MMSI: 538006140.

Date/timePositionNaut miles runAvg speedWind from/ knotsBaromVisibWave heightAir tempDewpointWater temp
2018-Jul-17 12:34N 34°01' E 023°28'111.6
2018-Jul-17 12:30N 34°02' E 023°27'611.6
2018-Jul-17 12:01N 34°03' E 023°20'  
2018-Jul-13 21:22N 37°13' E 003°53'411.2
2018-Jul-13 21:00N 37°13' E 003°48'16711.5
2018-Jul-13 06:28N 36°41' E 000°23'3011.7
2018-Jul-13 03:53N 36°35' W 000°14'252 7.5
2018-Jul-11 18:32N 36°05' W 005°24'0 0.4
2018-Jul-11 18:29N 36°05' W 005°24'0 0.3
2018-Jul-11 17:59N 36°05' W 005°24'0 0.1
2018-Jul-11 17:23N 36°05' W 005°24'0 0.1
2018-Jul-11 16:44N 36°05' W 005°24'0 0.3
2018-Jul-11 16:29N 36°05' W 005°24'0 0.2
2018-Jul-11 15:59N 36°05' W 005°24'0 0.1
2018-Jul-11 15:29N 36°05' W 005°24'0 0.1
2018-Jul-11 14:56N 36°05' W 005°24'0 0.1
2018-Jul-11 14:29N 36°05' W 005°24'0 0.1
2018-Jul-11 13:59N 36°05' W 005°24'0 0.3
2018-Jul-11 13:30N 36°05' W 005°24'1 2.8
2018-Jul-11 13:00N 36°04' W 005°23'3 5.8
2018-Jul-11 12:30N 36°02' W 005°20'3 5.5
2018-Jul-11 12:00N 35°60' W 005°22'611.9
2018-Jul-11 11:30N 35°58' W 005°29'15911.0
2018-Jul-10 21:01N 36°14' W 008°45'010.7
2018-Jul-10 21:00N 36°14' W 008°45'711.2
2018-Jul-10 20:24N 36°15' W 008°53'511.2
2018-Jul-10 19:58N 36°16' W 008°59'3411.3
2018-Jul-10 16:59N 36°22' W 009°40'611.3
2018-Jul-10 16:25N 36°23' W 009°48'2711.3
2018-Jul-10 14:00N 36°28' W 010°22'611.2
2018-Jul-10 13:25N 36°29' W 010°30'2811.1
2018-Jul-10 10:53N 36°34' W 011°04'2410.9
2018-Jul-10 08:39N 36°37' W 011°34'410.5
2018-Jul-10 08:15N 36°38' W 011°39'310.9
2018-Jul-10 07:57N 36°39' W 011°43'1211.1
2018-Jul-10 06:53N 36°40' W 011°58'4210.9
2018-Jul-10 03:04N 36°46' W 012°49'3910.8
2018-Jul-09 23:28N 36°52' W 013°37'510.6
2018-Jul-09 23:00N 36°52' W 013°43'1510.9
2018-Jul-09 21:38N 36°54' W 014°02'110.9
2018-Jul-09 21:30N 36°55' W 014°04'610.9
2018-Jul-09 21:00N 36°55' W 014°11'510.8
2018-Jul-09 20:30N 36°56' W 014°17'510.6
2018-Jul-09 20:00N 36°56' W 014°24'1211.0
2018-Jul-09 18:52N 36°58' W 014°39'410.9
2018-Jul-09 18:30N 36°58' W 014°44'510.7
2018-Jul-09 18:00N 36°59' W 014°51'1310.6
2018-Jul-09 16:49N 37°01' W 015°06'310.7
2018-Jul-09 16:30N 37°01' W 015°11'510.6
2018-Jul-09 16:00N 37°02' W 015°17'1010.6
2018-Jul-09 15:06N 37°03' W 015°29'110.6
2018-Jul-09 15:00N 37°03' W 015°30'510.7
2018-Jul-09 14:30N 37°03' W 015°37'510.8
2018-Jul-09 14:00N 37°04' W 015°44'37510.6
2018-Jul-08 02:38N 37°30' W 023°34'211.2
2018-Jul-08 02:30N 37°30' W 023°36'511.2
2018-Jul-08 02:00N 37°30' W 023°43'611.2
2018-Jul-08 01:30N 37°30' W 023°50'611.3
2018-Jul-08 01:00N 37°30' W 023°57'511.2
2018-Jul-08 00:30N 37°30' W 024°04'611.3
2018-Jul-08 00:00N 37°31' W 024°11'611.2
2018-Jul-07 23:30N 37°31' W 024°18'611.2
2018-Jul-07 23:00N 37°31' W 024°25'611.1
2018-Jul-07 22:30N 37°31' W 024°32'611.3
2018-Jul-07 22:00N 37°31' W 024°39'611.5
2018-Jul-07 21:30N 37°31' W 024°47'611.4
2018-Jul-07 21:00N 37°31' W 024°54'611.2
2018-Jul-07 20:30N 37°31' W 025°01'611.7
2018-Jul-07 20:00N 37°32' W 025°08'611.5
2018-Jul-07 19:30N 37°31' W 025°16'611.0
2018-Jul-07 19:00N 37°31' W 025°23'611.1
2018-Jul-07 18:30N 37°31' W 025°29'611.1
2018-Jul-07 18:00N 37°31' W 025°36'510.8
2018-Jul-07 17:30N 37°31' W 025°43'510.6
2018-Jul-07 17:00N 37°31' W 025°50'510.9
2018-Jul-07 16:30N 37°32' W 025°57'510.8
2018-Jul-07 16:00N 37°32' W 026°04'510.9
2018-Jul-07 15:30N 37°32' W 026°11'611.2
2018-Jul-07 15:00N 37°32' W 026°18'611.1
2018-Jul-07 14:30N 37°31' W 026°25'511.0
2018-Jul-07 14:00N 37°31' W 026°31'511.0
2018-Jul-07 13:30N 37°31' W 026°38'510.9
2018-Jul-07 13:00N 37°31' W 026°45'  
Track history (hours):
 
Tides and Currents Weather Stations Pressure Air Temp Water Temp Dewpoint Dewpoint Depression Visibility Wind Speed Wind Dir Waves Ship Positions

Sbi Tango

Last reported at 2018-Jul-17 12:34 UTC. Time now 2018-Jul-20 14:14 UTC.
Position N 34°01' E 023°28'.

Length 199 m; draft 13.2 m.

Type: Cargo ship. MMSI: 538006140.

Date/timePositionNaut miles runAvg speedWind from/ knotsBaromVisibWave heightAir tempDewpointWater temp
2018-Jul-17 12:34N 34°01' E 023°28'111.6
2018-Jul-17 12:30N 34°02' E 023°27'611.6
2018-Jul-17 12:01N 34°03' E 023°20'  
2018-Jul-13 21:22N 37°13' E 003°53'411.2
2018-Jul-13 21:00N 37°13' E 003°48'16711.5
2018-Jul-13 06:28N 36°41' E 000°23'3011.7
2018-Jul-13 03:53N 36°35' W 000°14'252 7.5
2018-Jul-11 18:32N 36°05' W 005°24'0 0.4
2018-Jul-11 18:29N 36°05' W 005°24'0 0.3
2018-Jul-11 17:59N 36°05' W 005°24'0 0.1
2018-Jul-11 17:23N 36°05' W 005°24'0 0.1
2018-Jul-11 16:44N 36°05' W 005°24'0 0.3
2018-Jul-11 16:29N 36°05' W 005°24'0 0.2
2018-Jul-11 15:59N 36°05' W 005°24'0 0.1
2018-Jul-11 15:29N 36°05' W 005°24'0 0.1
2018-Jul-11 14:56N 36°05' W 005°24'0 0.1
2018-Jul-11 14:29N 36°05' W 005°24'0 0.1
2018-Jul-11 13:59N 36°05' W 005°24'0 0.3
2018-Jul-11 13:30N 36°05' W 005°24'1 2.8
2018-Jul-11 13:00N 36°04' W 005°23'3 5.8
2018-Jul-11 12:30N 36°02' W 005°20'3 5.5
2018-Jul-11 12:00N 35°60' W 005°22'611.9
2018-Jul-11 11:30N 35°58' W 005°29'15911.0
2018-Jul-10 21:01N 36°14' W 008°45'010.7
2018-Jul-10 21:00N 36°14' W 008°45'711.2
2018-Jul-10 20:24N 36°15' W 008°53'511.2
2018-Jul-10 19:58N 36°16' W 008°59'3411.3
2018-Jul-10 16:59N 36°22' W 009°40'611.3
2018-Jul-10 16:25N 36°23' W 009°48'2711.3
2018-Jul-10 14:00N 36°28' W 010°22'611.2
2018-Jul-10 13:25N 36°29' W 010°30'2811.1
2018-Jul-10 10:53N 36°34' W 011°04'2410.9
2018-Jul-10 08:39N 36°37' W 011°34'410.5
2018-Jul-10 08:15N 36°38' W 011°39'310.9
2018-Jul-10 07:57N 36°39' W 011°43'1211.1
2018-Jul-10 06:53N 36°40' W 011°58'4210.9
2018-Jul-10 03:04N 36°46' W 012°49'3910.8
2018-Jul-09 23:28N 36°52' W 013°37'510.6
2018-Jul-09 23:00N 36°52' W 013°43'1510.9
2018-Jul-09 21:38N 36°54' W 014°02'110.9
2018-Jul-09 21:30N 36°55' W 014°04'610.9
2018-Jul-09 21:00N 36°55' W 014°11'510.8
2018-Jul-09 20:30N 36°56' W 014°17'510.6
2018-Jul-09 20:00N 36°56' W 014°24'1211.0
2018-Jul-09 18:52N 36°58' W 014°39'410.9
2018-Jul-09 18:30N 36°58' W 014°44'510.7
2018-Jul-09 18:00N 36°59' W 014°51'1310.6
2018-Jul-09 16:49N 37°01' W 015°06'310.7
2018-Jul-09 16:30N 37°01' W 015°11'510.6
2018-Jul-09 16:00N 37°02' W 015°17'1010.6
2018-Jul-09 15:06N 37°03' W 015°29'110.6
2018-Jul-09 15:00N 37°03' W 015°30'510.7
2018-Jul-09 14:30N 37°03' W 015°37'510.8
2018-Jul-09 14:00N 37°04' W 015°44'37510.6
2018-Jul-08 02:38N 37°30' W 023°34'211.2
2018-Jul-08 02:30N 37°30' W 023°36'511.2
2018-Jul-08 02:00N 37°30' W 023°43'611.2
2018-Jul-08 01:30N 37°30' W 023°50'611.3
2018-Jul-08 01:00N 37°30' W 023°57'511.2
2018-Jul-08 00:30N 37°30' W 024°04'611.3
2018-Jul-08 00:00N 37°31' W 024°11'611.2
2018-Jul-07 23:30N 37°31' W 024°18'611.2
2018-Jul-07 23:00N 37°31' W 024°25'611.1
2018-Jul-07 22:30N 37°31' W 024°32'611.3
2018-Jul-07 22:00N 37°31' W 024°39'611.5
2018-Jul-07 21:30N 37°31' W 024°47'611.4
2018-Jul-07 21:00N 37°31' W 024°54'611.2
2018-Jul-07 20:30N 37°31' W 025°01'611.7
2018-Jul-07 20:00N 37°32' W 025°08'611.5
2018-Jul-07 19:30N 37°31' W 025°16'611.0
2018-Jul-07 19:00N 37°31' W 025°23'611.1
2018-Jul-07 18:30N 37°31' W 025°29'611.1
2018-Jul-07 18:00N 37°31' W 025°36'510.8
2018-Jul-07 17:30N 37°31' W 025°43'510.6
2018-Jul-07 17:00N 37°31' W 025°50'510.9
2018-Jul-07 16:30N 37°32' W 025°57'510.8
2018-Jul-07 16:00N 37°32' W 026°04'510.9
2018-Jul-07 15:30N 37°32' W 026°11'611.2
2018-Jul-07 15:00N 37°32' W 026°18'611.1
2018-Jul-07 14:30N 37°31' W 026°25'511.0
2018-Jul-07 14:00N 37°31' W 026°31'511.0
2018-Jul-07 13:30N 37°31' W 026°38'510.9
2018-Jul-07 13:00N 37°31' W 026°45'  

Dump ship's entire track history